sensor_id;sensor_type;location;lat;lon;timestamp;temperature;humidity
46816;DHT22;32787;53.316;8.670;2023-09-08T00:00:38;17.80;81.20
46816;DHT22;32787;53.316;8.670;2023-09-08T00:03:25;17.70;81.30
46816;DHT22;32787;53.316;8.670;2023-09-08T00:06:11;17.70;81.20
46816;DHT22;32787;53.316;8.670;2023-09-08T00:08:57;17.60;81.70
46816;DHT22;32787;53.316;8.670;2023-09-08T00:11:43;17.60;81.40
46816;DHT22;32787;53.316;8.670;2023-09-08T00:14:29;17.50;81.20
46816;DHT22;32787;53.316;8.670;2023-09-08T00:17:14;17.30;81.50
46816;DHT22;32787;53.316;8.670;2023-09-08T00:20:00;17.10;82.20
46816;DHT22;32787;53.316;8.670;2023-09-08T00:22:46;17.20;82.00
46816;DHT22;32787;53.316;8.670;2023-09-08T00:25:32;17.20;82.00
46816;DHT22;32787;53.316;8.670;2023-09-08T00:28:18;17.20;82.30
46816;DHT22;32787;53.316;8.670;2023-09-08T00:31:04;17.20;82.20
46816;DHT22;32787;53.316;8.670;2023-09-08T00:33:50;17.20;81.80
46816;DHT22;32787;53.316;8.670;2023-09-08T00:36:36;17.10;82.10
46816;DHT22;32787;53.316;8.670;2023-09-08T00:39:22;17.10;81.90
46816;DHT22;32787;53.316;8.670;2023-09-08T00:42:08;17.10;82.10
46816;DHT22;32787;53.316;8.670;2023-09-08T00:44:54;17.00;82.20
46816;DHT22;32787;53.316;8.670;2023-09-08T00:47:40;17.00;82.50
46816;DHT22;32787;53.316;8.670;2023-09-08T00:50:26;17.00;82.50
46816;DHT22;32787;53.316;8.670;2023-09-08T00:53:12;17.00;82.40
46816;DHT22;32787;53.316;8.670;2023-09-08T00:55:59;17.00;82.20
46816;DHT22;32787;53.316;8.670;2023-09-08T00:58:46;17.00;82.40
46816;DHT22;32787;53.316;8.670;2023-09-08T01:01:32;17.20;82.20
46816;DHT22;32787;53.316;8.670;2023-09-08T01:04:20;17.20;82.10
46816;DHT22;32787;53.316;8.670;2023-09-08T01:07:06;17.00;81.90
46816;DHT22;32787;53.316;8.670;2023-09-08T01:09:53;17.00;82.00
46816;DHT22;32787;53.316;8.670;2023-09-08T01:12:39;16.90;82.30
46816;DHT22;32787;53.316;8.670;2023-09-08T01:15:25;16.90;81.90
46816;DHT22;32787;53.316;8.670;2023-09-08T01:18:11;16.90;82.30
46816;DHT22;32787;53.316;8.670;2023-09-08T01:27:06;17.00;81.40
46816;DHT22;32787;53.316;8.670;2023-09-08T01:29:53;17.10;81.10
46816;DHT22;32787;53.316;8.670;2023-09-08T01:32:40;17.10;81.40
46816;DHT22;32787;53.316;8.670;2023-09-08T01:35:27;17.30;80.60
46816;DHT22;32787;53.316;8.670;2023-09-08T01:38:13;17.10;81.00
46816;DHT22;32787;53.316;8.670;2023-09-08T01:40:59;17.00;80.90
46816;DHT22;32787;53.316;8.670;2023-09-08T01:43:46;17.20;81.00
46816;DHT22;32787;53.316;8.670;2023-09-08T01:46:31;17.10;80.70
46816;DHT22;32787;53.316;8.670;2023-09-08T01:49:17;17.10;80.70
46816;DHT22;32787;53.316;8.670;2023-09-08T01:52:04;17.10;81.30
46816;DHT22;32787;53.316;8.670;2023-09-08T01:54:50;17.10;81.30
46816;DHT22;32787;53.316;8.670;2023-09-08T01:57:36;17.10;80.80
46816;DHT22;32787;53.316;8.670;2023-09-08T02:00:22;17.20;80.70
46816;DHT22;32787;53.316;8.670;2023-09-08T02:03:08;17.10;80.60
46816;DHT22;32787;53.316;8.670;2023-09-08T02:05:54;16.90;81.30
46816;DHT22;32787;53.316;8.670;2023-09-08T02:08:39;16.80;81.50
46816;DHT22;32787;53.316;8.670;2023-09-08T02:11:25;17.00;81.20
46816;DHT22;32787;53.316;8.670;2023-09-08T02:14:11;17.10;80.80
46816;DHT22;32787;53.316;8.670;2023-09-08T02:16:58;17.00;80.80
46816;DHT22;32787;53.316;8.670;2023-09-08T02:19:44;16.90;81.20
46816;DHT22;32787;53.316;8.670;2023-09-08T02:22:29;17.00;81.30
46816;DHT22;32787;53.316;8.670;2023-09-08T02:25:15;17.00;81.10
46816;DHT22;32787;53.316;8.670;2023-09-08T02:28:02;16.90;81.20
46816;DHT22;32787;53.316;8.670;2023-09-08T02:30:48;16.80;81.40
46816;DHT22;32787;53.316;8.670;2023-09-08T02:33:34;16.90;81.20
46816;DHT22;32787;53.316;8.670;2023-09-08T02:36:20;16.90;81.10
46816;DHT22;32787;53.316;8.670;2023-09-08T02:39:10;16.80;81.30
46816;DHT22;32787;53.316;8.670;2023-09-08T02:41:56;16.70;81.80
46816;DHT22;32787;53.316;8.670;2023-09-08T02:44:42;16.60;82.10
46816;DHT22;32787;53.316;8.670;2023-09-08T02:47:29;16.70;81.80
46816;DHT22;32787;53.316;8.670;2023-09-08T02:50:15;16.60;82.20
46816;DHT22;32787;53.316;8.670;2023-09-08T02:53:00;16.50;82.50
46816;DHT22;32787;53.316;8.670;2023-09-08T02:55:46;16.40;82.70
46816;DHT22;32787;53.316;8.670;2023-09-08T02:58:32;16.40;83.00
46816;DHT22;32787;53.316;8.670;2023-09-08T03:01:19;16.50;82.90
46816;DHT22;32787;53.316;8.670;2023-09-08T03:04:06;16.70;82.30
46816;DHT22;32787;53.316;8.670;2023-09-08T03:06:51;16.60;82.30
46816;DHT22;32787;53.316;8.670;2023-09-08T03:09:37;16.60;82.40
46816;DHT22;32787;53.316;8.670;2023-09-08T03:12:23;16.80;82.10
46816;DHT22;32787;53.316;8.670;2023-09-08T03:15:09;16.60;82.10
46816;DHT22;32787;53.316;8.670;2023-09-08T03:17:56;16.50;82.30
46816;DHT22;32787;53.316;8.670;2023-09-08T03:20:51;16.60;82.30
46816;DHT22;32787;53.316;8.670;2023-09-08T03:26:23;16.40;83.00
46816;DHT22;32787;53.316;8.670;2023-09-08T03:29:09;16.20;83.20
46816;DHT22;32787;53.316;8.670;2023-09-08T03:31:55;16.10;83.60
46816;DHT22;32787;53.316;8.670;2023-09-08T03:34:41;16.10;83.80
46816;DHT22;32787;53.316;8.670;2023-09-08T03:37:27;16.10;83.80
46816;DHT22;32787;53.316;8.670;2023-09-08T03:40:13;16.00;84.00
46816;DHT22;32787;53.316;8.670;2023-09-08T03:42:59;16.10;83.80
46816;DHT22;32787;53.316;8.670;2023-09-08T03:45:45;16.20;83.50
46816;DHT22;32787;53.316;8.670;2023-09-08T03:48:31;16.20;83.50
46816;DHT22;32787;53.316;8.670;2023-09-08T03:51:17;15.90;84.20
46816;DHT22;32787;53.316;8.670;2023-09-08T03:54:03;16.10;83.80
46816;DHT22;32787;53.316;8.670;2023-09-08T03:56:49;16.20;83.70
46816;DHT22;32787;53.316;8.670;2023-09-08T03:59:35;16.20;84.00
46816;DHT22;32787;53.316;8.670;2023-09-08T04:02:21;15.90;84.50
46816;DHT22;32787;53.316;8.670;2023-09-08T04:05:07;15.90;84.60
46816;DHT22;32787;53.316;8.670;2023-09-08T04:07:53;15.80;84.50
46816;DHT22;32787;53.316;8.670;2023-09-08T04:10:39;15.80;84.60
46816;DHT22;32787;53.316;8.670;2023-09-08T04:13:25;15.80;84.70
46816;DHT22;32787;53.316;8.670;2023-09-08T04:16:11;15.80;85.00
46816;DHT22;32787;53.316;8.670;2023-09-08T04:18:57;15.80;85.00
46816;DHT22;32787;53.316;8.670;2023-09-08T04:21:43;15.80;84.90
46816;DHT22;32787;53.316;8.670;2023-09-08T04:24:28;15.80;84.80
46816;DHT22;32787;53.316;8.670;2023-09-08T04:27:14;15.80;85.10
46816;DHT22;32787;53.316;8.670;2023-09-08T04:30:00;15.80;84.80
46816;DHT22;32787;53.316;8.670;2023-09-08T04:32:46;16.00;84.50
46816;DHT22;32787;53.316;8.670;2023-09-08T04:35:32;15.90;84.50
46816;DHT22;32787;53.316;8.670;2023-09-08T04:38:18;16.10;84.50
46816;DHT22;32787;53.316;8.670;2023-09-08T04:41:04;16.10;84.10
46816;DHT22;32787;53.316;8.670;2023-09-08T04:43:50;16.20;83.50
46816;DHT22;32787;53.316;8.670;2023-09-08T04:46:36;16.00;83.90
46816;DHT22;32787;53.316;8.670;2023-09-08T04:49:22;16.00;84.20
46816;DHT22;32787;53.316;8.670;2023-09-08T04:52:07;15.90;84.20
46816;DHT22;32787;53.316;8.670;2023-09-08T04:54:54;15.90;84.20
46816;DHT22;32787;53.316;8.670;2023-09-08T04:57:40;15.90;84.50
46816;DHT22;32787;53.316;8.670;2023-09-08T05:00:26;15.90;84.90
46816;DHT22;32787;53.316;8.670;2023-09-08T05:03:11;15.80;84.80
46816;DHT22;32787;53.316;8.670;2023-09-08T05:05:57;15.80;85.10
46816;DHT22;32787;53.316;8.670;2023-09-08T05:08:43;15.80;85.20
46816;DHT22;32787;53.316;8.670;2023-09-08T05:11:29;15.80;85.60
46816;DHT22;32787;53.316;8.670;2023-09-08T05:14:16;15.80;85.60
46816;DHT22;32787;53.316;8.670;2023-09-08T05:17:02;15.80;85.50
46816;DHT22;32787;53.316;8.670;2023-09-08T05:19:48;15.80;85.60
46816;DHT22;32787;53.316;8.670;2023-09-08T05:22:34;15.80;85.50
46816;DHT22;32787;53.316;8.670;2023-09-08T05:25:20;15.90;84.90
46816;DHT22;32787;53.316;8.670;2023-09-08T05:28:06;16.00;84.60
46816;DHT22;32787;53.316;8.670;2023-09-08T05:30:54;16.10;84.60
46816;DHT22;32787;53.316;8.670;2023-09-08T05:33:40;16.00;84.30
46816;DHT22;32787;53.316;8.670;2023-09-08T05:36:26;16.10;84.60
46816;DHT22;32787;53.316;8.670;2023-09-08T05:39:14;16.10;84.30
46816;DHT22;32787;53.316;8.670;2023-09-08T05:42:00;16.10;84.10
46816;DHT22;32787;53.316;8.670;2023-09-08T05:44:46;16.20;84.20
46816;DHT22;32787;53.316;8.670;2023-09-08T05:47:33;16.20;84.10
46816;DHT22;32787;53.316;8.670;2023-09-08T05:50:21;16.20;84.10
46816;DHT22;32787;53.316;8.670;2023-09-08T05:53:06;16.30;84.00
46816;DHT22;32787;53.316;8.670;2023-09-08T05:55:52;16.30;84.10
46816;DHT22;32787;53.316;8.670;2023-09-08T05:58:38;16.30;83.90
46816;DHT22;32787;53.316;8.670;2023-09-08T06:01:24;16.30;83.90
46816;DHT22;32787;53.316;8.670;2023-09-08T06:04:10;16.40;83.90
46816;DHT22;32787;53.316;8.670;2023-09-08T06:06:56;16.50;83.90
46816;DHT22;32787;53.316;8.670;2023-09-08T06:09:42;16.50;83.90
46816;DHT22;32787;53.316;8.670;2023-09-08T06:12:28;16.60;83.70
46816;DHT22;32787;53.316;8.670;2023-09-08T06:15:14;16.70;83.60
46816;DHT22;32787;53.316;8.670;2023-09-08T06:18:00;16.80;83.80
46816;DHT22;32787;53.316;8.670;2023-09-08T06:20:47;16.90;83.90
46816;DHT22;32787;53.316;8.670;2023-09-08T06:23:33;17.00;83.50
46816;DHT22;32787;53.316;8.670;2023-09-08T06:26:19;17.10;83.70
46816;DHT22;32787;53.316;8.670;2023-09-08T06:29:05;17.00;84.10
46816;DHT22;32787;53.316;8.670;2023-09-08T06:31:51;17.10;83.80
46816;DHT22;32787;53.316;8.670;2023-09-08T06:34:37;17.10;83.80
46816;DHT22;32787;53.316;8.670;2023-09-08T06:37:23;17.10;83.70
46816;DHT22;32787;53.316;8.670;2023-09-08T06:40:09;17.30;83.60
46816;DHT22;32787;53.316;8.670;2023-09-08T06:42:55;17.50;83.10
46816;DHT22;32787;53.316;8.670;2023-09-08T06:45:42;17.60;82.60
46816;DHT22;32787;53.316;8.670;2023-09-08T06:48:29;17.70;82.80
46816;DHT22;32787;53.316;8.670;2023-09-08T06:51:15;17.80;82.90
46816;DHT22;32787;53.316;8.670;2023-09-08T06:54:00;17.80;82.00
46816;DHT22;32787;53.316;8.670;2023-09-08T06:56:46;18.00;82.30
46816;DHT22;32787;53.316;8.670;2023-09-08T06:59:32;18.10;81.30
46816;DHT22;32787;53.316;8.670;2023-09-08T07:02:18;18.30;81.00
46816;DHT22;32787;53.316;8.670;2023-09-08T07:05:04;18.40;81.10
46816;DHT22;32787;53.316;8.670;2023-09-08T07:07:53;18.40;80.50
46816;DHT22;32787;53.316;8.670;2023-09-08T07:10:39;18.50;80.50
46816;DHT22;32787;53.316;8.670;2023-09-08T07:13:25;18.60;79.40
46816;DHT22;32787;53.316;8.670;2023-09-08T07:16:11;18.70;80.10
46816;DHT22;32787;53.316;8.670;2023-09-08T07:18:57;18.80;80.10
46816;DHT22;32787;53.316;8.670;2023-09-08T07:21:45;18.80;79.20
46816;DHT22;32787;53.316;8.670;2023-09-08T07:24:31;18.90;79.10
46816;DHT22;32787;53.316;8.670;2023-09-08T07:27:17;19.10;79.00
46816;DHT22;32787;53.316;8.670;2023-09-08T07:30:05;19.10;79.10
46816;DHT22;32787;53.316;8.670;2023-09-08T07:32:51;19.20;78.30
46816;DHT22;32787;53.316;8.670;2023-09-08T07:35:38;19.20;78.70
46816;DHT22;32787;53.316;8.670;2023-09-08T07:38:24;19.40;78.90
46816;DHT22;32787;53.316;8.670;2023-09-08T07:41:10;19.50;78.80
46816;DHT22;32787;53.316;8.670;2023-09-08T07:43:57;19.50;78.50
46816;DHT22;32787;53.316;8.670;2023-09-08T07:46:43;19.80;78.20
46816;DHT22;32787;53.316;8.670;2023-09-08T07:49:33;19.90;77.50
46816;DHT22;32787;53.316;8.670;2023-09-08T07:52:19;20.10;77.10
46816;DHT22;32787;53.316;8.670;2023-09-08T07:55:05;20.30;76.60
46816;DHT22;32787;53.316;8.670;2023-09-08T07:57:51;20.30;77.00
46816;DHT22;32787;53.316;8.670;2023-09-08T08:00:37;20.30;76.30
46816;DHT22;32787;53.316;8.670;2023-09-08T08:03:23;20.40;75.80
46816;DHT22;32787;53.316;8.670;2023-09-08T08:06:09;20.50;75.90
46816;DHT22;32787;53.316;8.670;2023-09-08T08:08:55;20.50;76.40
46816;DHT22;32787;53.316;8.670;2023-09-08T08:11:41;20.70;76.30
46816;DHT22;32787;53.316;8.670;2023-09-08T08:14:27;20.70;76.00
46816;DHT22;32787;53.316;8.670;2023-09-08T08:17:13;20.80;75.90
46816;DHT22;32787;53.316;8.670;2023-09-08T08:19:59;21.00;75.30
46816;DHT22;32787;53.316;8.670;2023-09-08T08:22:51;21.10;74.70
46816;DHT22;32787;53.316;8.670;2023-09-08T08:25:37;21.10;74.10
46816;DHT22;32787;53.316;8.670;2023-09-08T08:28:23;21.20;73.90
46816;DHT22;32787;53.316;8.670;2023-09-08T08:31:10;21.30;75.00
46816;DHT22;32787;53.316;8.670;2023-09-08T08:33:56;21.20;75.40
46816;DHT22;32787;53.316;8.670;2023-09-08T08:36:42;21.30;76.00
46816;DHT22;32787;53.316;8.670;2023-09-08T08:39:28;21.30;76.00
46816;DHT22;32787;53.316;8.670;2023-09-08T08:42:14;21.40;75.80
46816;DHT22;32787;53.316;8.670;2023-09-08T08:45:00;21.50;75.30
46816;DHT22;32787;53.316;8.670;2023-09-08T08:47:46;21.80;75.10
46816;DHT22;32787;53.316;8.670;2023-09-08T08:50:35;22.10;72.70
46816;DHT22;32787;53.316;8.670;2023-09-08T08:53:21;22.30;73.50
46816;DHT22;32787;53.316;8.670;2023-09-08T08:56:08;22.30;73.00
46816;DHT22;32787;53.316;8.670;2023-09-08T08:58:56;22.30;72.20
46816;DHT22;32787;53.316;8.670;2023-09-08T09:01:43;22.30;72.30
46816;DHT22;32787;53.316;8.670;2023-09-08T09:04:29;22.50;71.80
46816;DHT22;32787;53.316;8.670;2023-09-08T09:07:18;22.70;71.30
46816;DHT22;32787;53.316;8.670;2023-09-08T09:10:05;22.70;71.90
46816;DHT22;32787;53.316;8.670;2023-09-08T09:12:51;22.70;72.60
46816;DHT22;32787;53.316;8.670;2023-09-08T09:15:37;22.80;72.60
46816;DHT22;32787;53.316;8.670;2023-09-08T09:18:23;22.90;72.10
46816;DHT22;32787;53.316;8.670;2023-09-08T09:21:09;23.20;71.90
46816;DHT22;32787;53.316;8.670;2023-09-08T09:23:55;23.20;71.80
46816;DHT22;32787;53.316;8.670;2023-09-08T09:26:40;23.20;70.80
46816;DHT22;32787;53.316;8.670;2023-09-08T09:29:28;23.50;70.40
46816;DHT22;32787;53.316;8.670;2023-09-08T09:32:14;23.60;70.20
46816;DHT22;32787;53.316;8.670;2023-09-08T09:35:00;23.70;70.20
46816;DHT22;32787;53.316;8.670;2023-09-08T09:37:47;23.50;69.30
46816;DHT22;32787;53.316;8.670;2023-09-08T09:40:33;23.50;70.50
46816;DHT22;32787;53.316;8.670;2023-09-08T09:43:21;23.60;70.30
46816;DHT22;32787;53.316;8.670;2023-09-08T09:46:08;23.90;69.90
46816;DHT22;32787;53.316;8.670;2023-09-08T09:48:54;23.70;68.90
46816;DHT22;32787;53.316;8.670;2023-09-08T09:51:47;23.80;68.80
46816;DHT22;32787;53.316;8.670;2023-09-08T09:54:33;24.00;68.30
46816;DHT22;32787;53.316;8.670;2023-09-08T09:57:21;24.10;66.80
46816;DHT22;32787;53.316;8.670;2023-09-08T10:00:09;24.20;67.80
46816;DHT22;32787;53.316;8.670;2023-09-08T10:02:56;24.20;67.20
46816;DHT22;32787;53.316;8.670;2023-09-08T10:05:42;24.20;68.40
46816;DHT22;32787;53.316;8.670;2023-09-08T10:08:28;24.20;67.90
46816;DHT22;32787;53.316;8.670;2023-09-08T10:11:18;24.40;66.10
46816;DHT22;32787;53.316;8.670;2023-09-08T10:14:07;24.40;66.70
46816;DHT22;32787;53.316;8.670;2023-09-08T10:16:59;24.50;67.40
46816;DHT22;32787;53.316;8.670;2023-09-08T10:19:45;24.70;68.30
46816;DHT22;32787;53.316;8.670;2023-09-08T10:22:42;24.70;67.30
46816;DHT22;32787;53.316;8.670;2023-09-08T10:25:33;24.60;67.30
46816;DHT22;32787;53.316;8.670;2023-09-08T10:28:25;24.70;67.80
46816;DHT22;32787;53.316;8.670;2023-09-08T10:31:12;24.80;68.60
46816;DHT22;32787;53.316;8.670;2023-09-08T10:33:59;24.80;68.20
46816;DHT22;32787;53.316;8.670;2023-09-08T10:36:46;24.90;66.80
46816;DHT22;32787;53.316;8.670;2023-09-08T10:39:33;25.00;67.70
46816;DHT22;32787;53.316;8.670;2023-09-08T10:42:26;25.20;67.20
46816;DHT22;32787;53.316;8.670;2023-09-08T10:45:18;25.40;66.60
46816;DHT22;32787;53.316;8.670;2023-09-08T10:48:06;25.40;64.70
46816;DHT22;32787;53.316;8.670;2023-09-08T10:50:51;25.40;66.70
46816;DHT22;32787;53.316;8.670;2023-09-08T10:53:37;25.40;65.20
46816;DHT22;32787;53.316;8.670;2023-09-08T10:56:47;25.60;65.10
46816;DHT22;32787;53.316;8.670;2023-09-08T10:59:38;25.80;64.80
46816;DHT22;32787;53.316;8.670;2023-09-08T11:02:41;25.70;65.30
46816;DHT22;32787;53.316;8.670;2023-09-08T11:05:27;25.80;62.10
46816;DHT22;32787;53.316;8.670;2023-09-08T11:08:18;25.90;62.60
46816;DHT22;32787;53.316;8.670;2023-09-08T11:11:04;26.30;62.20
46816;DHT22;32787;53.316;8.670;2023-09-08T11:13:51;26.30;63.10
46816;DHT22;32787;53.316;8.670;2023-09-08T11:16:37;26.30;59.40
46816;DHT22;32787;53.316;8.670;2023-09-08T11:19:23;26.20;61.30
46816;DHT22;32787;53.316;8.670;2023-09-08T11:22:10;26.30;62.50
46816;DHT22;32787;53.316;8.670;2023-09-08T11:24:56;26.30;62.70
46816;DHT22;32787;53.316;8.670;2023-09-08T11:27:43;26.30;62.70
46816;DHT22;32787;53.316;8.670;2023-09-08T11:30:30;26.40;61.90
46816;DHT22;32787;53.316;8.670;2023-09-08T11:33:18;26.50;61.90
46816;DHT22;32787;53.316;8.670;2023-09-08T11:36:11;26.60;60.30
46816;DHT22;32787;53.316;8.670;2023-09-08T11:38:59;26.80;59.20
46816;DHT22;32787;53.316;8.670;2023-09-08T11:41:45;26.80;60.80
46816;DHT22;32787;53.316;8.670;2023-09-08T11:44:31;26.70;60.00
46816;DHT22;32787;53.316;8.670;2023-09-08T11:47:17;26.90;58.80
46816;DHT22;32787;53.316;8.670;2023-09-08T11:50:04;27.00;56.80
46816;DHT22;32787;53.316;8.670;2023-09-08T11:52:52;26.90;57.40
46816;DHT22;32787;53.316;8.670;2023-09-08T11:55:39;27.00;57.60
46816;DHT22;32787;53.316;8.670;2023-09-08T11:58:25;27.10;56.80
46816;DHT22;32787;53.316;8.670;2023-09-08T12:01:12;27.20;57.30
46816;DHT22;32787;53.316;8.670;2023-09-08T12:03:59;27.30;57.80
46816;DHT22;32787;53.316;8.670;2023-09-08T12:06:45;27.30;56.50
46816;DHT22;32787;53.316;8.670;2023-09-08T12:09:31;27.30;56.40
46816;DHT22;32787;53.316;8.670;2023-09-08T12:12:17;27.40;54.10
46816;DHT22;32787;53.316;8.670;2023-09-08T12:15:03;27.50;54.90
46816;DHT22;32787;53.316;8.670;2023-09-08T12:17:49;27.60;53.60
46816;DHT22;32787;53.316;8.670;2023-09-08T12:20:37;27.70;52.80
46816;DHT22;32787;53.316;8.670;2023-09-08T12:23:23;27.70;52.70
46816;DHT22;32787;53.316;8.670;2023-09-08T12:26:10;27.70;52.20
46816;DHT22;32787;53.316;8.670;2023-09-08T12:28:56;27.70;51.50
46816;DHT22;32787;53.316;8.670;2023-09-08T12:31:42;27.70;52.00
46816;DHT22;32787;53.316;8.670;2023-09-08T12:34:28;27.70;52.40
46816;DHT22;32787;53.316;8.670;2023-09-08T12:37:14;27.70;53.10
46816;DHT22;32787;53.316;8.670;2023-09-08T12:40:00;27.90;54.90
46816;DHT22;32787;53.316;8.670;2023-09-08T12:42:47;28.00;49.70
46816;DHT22;32787;53.316;8.670;2023-09-08T12:45:33;27.90;49.90
46816;DHT22;32787;53.316;8.670;2023-09-08T12:48:19;27.80;51.80
46816;DHT22;32787;53.316;8.670;2023-09-08T12:51:04;28.10;51.40
46816;DHT22;32787;53.316;8.670;2023-09-08T12:53:51;28.00;52.40
46816;DHT22;32787;53.316;8.670;2023-09-08T12:56:36;28.00;52.80
46816;DHT22;32787;53.316;8.670;2023-09-08T12:59:22;28.20;52.90
46816;DHT22;32787;53.316;8.670;2023-09-08T13:02:08;28.20;49.50
46816;DHT22;32787;53.316;8.670;2023-09-08T13:04:55;28.20;47.90
46816;DHT22;32787;53.316;8.670;2023-09-08T13:07:40;28.20;48.60
46816;DHT22;32787;53.316;8.670;2023-09-08T13:10:26;28.20;48.70
46816;DHT22;32787;53.316;8.670;2023-09-08T13:13:12;28.30;49.90
46816;DHT22;32787;53.316;8.670;2023-09-08T13:15:58;28.30;48.90
46816;DHT22;32787;53.316;8.670;2023-09-08T13:18:44;28.30;48.70
46816;DHT22;32787;53.316;8.670;2023-09-08T13:21:30;28.40;51.90
46816;DHT22;32787;53.316;8.670;2023-09-08T13:24:16;28.30;49.20
46816;DHT22;32787;53.316;8.670;2023-09-08T13:27:03;28.30;49.20
46816;DHT22;32787;53.316;8.670;2023-09-08T13:29:49;28.30;49.70
46816;DHT22;32787;53.316;8.670;2023-09-08T13:32:35;28.30;49.70
46816;DHT22;32787;53.316;8.670;2023-09-08T13:35:21;28.20;49.20
46816;DHT22;32787;53.316;8.670;2023-09-08T13:38:07;28.30;49.90
46816;DHT22;32787;53.316;8.670;2023-09-08T13:40:53;28.40;48.80
46816;DHT22;32787;53.316;8.670;2023-09-08T13:43:38;28.30;49.60
46816;DHT22;32787;53.316;8.670;2023-09-08T13:46:24;28.30;49.50
46816;DHT22;32787;53.316;8.670;2023-09-08T13:49:10;28.50;49.90
46816;DHT22;32787;53.316;8.670;2023-09-08T13:51:56;28.50;49.80
46816;DHT22;32787;53.316;8.670;2023-09-08T13:54:42;28.60;49.30
46816;DHT22;32787;53.316;8.670;2023-09-08T13:57:29;28.50;49.80
46816;DHT22;32787;53.316;8.670;2023-09-08T14:00:16;28.60;50.30
46816;DHT22;32787;53.316;8.670;2023-09-08T14:03:02;28.50;50.50
46816;DHT22;32787;53.316;8.670;2023-09-08T14:05:49;28.60;49.90
46816;DHT22;32787;53.316;8.670;2023-09-08T14:08:35;28.60;50.60
46816;DHT22;32787;53.316;8.670;2023-09-08T14:11:24;28.70;49.50
46816;DHT22;32787;53.316;8.670;2023-09-08T14:14:10;28.90;49.30
46816;DHT22;32787;53.316;8.670;2023-09-08T14:16:55;28.90;48.10
46816;DHT22;32787;53.316;8.670;2023-09-08T14:19:41;29.10;48.40
46816;DHT22;32787;53.316;8.670;2023-09-08T14:22:27;29.50;47.30
46816;DHT22;32787;53.316;8.670;2023-09-08T14:25:13;30.10;46.90
46816;DHT22;32787;53.316;8.670;2023-09-08T14:27:59;29.90;47.70
46816;DHT22;32787;53.316;8.670;2023-09-08T14:30:52;29.70;48.50
46816;DHT22;32787;53.316;8.670;2023-09-08T14:33:38;29.60;49.20
46816;DHT22;32787;53.316;8.670;2023-09-08T14:36:24;29.20;49.60
46816;DHT22;32787;53.316;8.670;2023-09-08T14:39:10;29.10;50.00
46816;DHT22;32787;53.316;8.670;2023-09-08T14:41:56;28.90;50.30
46816;DHT22;32787;53.316;8.670;2023-09-08T14:44:42;28.90;50.60
46816;DHT22;32787;53.316;8.670;2023-09-08T14:47:28;28.90;50.70
46816;DHT22;32787;53.316;8.670;2023-09-08T14:50:14;28.80;53.60
46816;DHT22;32787;53.316;8.670;2023-09-08T14:53:01;28.70;54.40
46816;DHT22;32787;53.316;8.670;2023-09-08T14:55:48;28.80;50.80
46816;DHT22;32787;53.316;8.670;2023-09-08T14:58:34;28.60;50.50
46816;DHT22;32787;53.316;8.670;2023-09-08T15:01:20;28.50;51.60
46816;DHT22;32787;53.316;8.670;2023-09-08T15:04:06;28.50;50.50
46816;DHT22;32787;53.316;8.670;2023-09-08T15:06:52;28.50;50.40
46816;DHT22;32787;53.316;8.670;2023-09-08T15:09:38;28.70;49.90
46816;DHT22;32787;53.316;8.670;2023-09-08T15:12:23;28.80;49.70
46816;DHT22;32787;53.316;8.670;2023-09-08T15:15:09;28.70;50.40
46816;DHT22;32787;53.316;8.670;2023-09-08T15:17:55;29.10;49.30
46816;DHT22;32787;53.316;8.670;2023-09-08T15:20:41;29.00;50.30
46816;DHT22;32787;53.316;8.670;2023-09-08T15:23:35;28.70;51.50
46816;DHT22;32787;53.316;8.670;2023-09-08T15:26:21;28.60;52.40
46816;DHT22;32787;53.316;8.670;2023-09-08T15:29:07;28.40;53.40
46816;DHT22;32787;53.316;8.670;2023-09-08T15:31:53;28.40;54.40
46816;DHT22;32787;53.316;8.670;2023-09-08T15:34:39;28.50;53.70
46816;DHT22;32787;53.316;8.670;2023-09-08T15:37:26;28.70;53.40
46816;DHT22;32787;53.316;8.670;2023-09-08T15:40:12;29.00;52.80
46816;DHT22;32787;53.316;8.670;2023-09-08T15:42:59;29.00;52.00
46816;DHT22;32787;53.316;8.670;2023-09-08T15:45:45;28.90;53.40
46816;DHT22;32787;53.316;8.670;2023-09-08T15:48:33;28.80;53.70
46816;DHT22;32787;53.316;8.670;2023-09-08T15:51:19;29.50;51.00
46816;DHT22;32787;53.316;8.670;2023-09-08T15:54:05;29.50;52.10
46816;DHT22;32787;53.316;8.670;2023-09-08T15:56:51;29.20;52.50
46816;DHT22;32787;53.316;8.670;2023-09-08T15:59:37;28.80;52.60
46816;DHT22;32787;53.316;8.670;2023-09-08T16:02:25;28.50;52.90
46816;DHT22;32787;53.316;8.670;2023-09-08T16:05:11;28.30;55.10
46816;DHT22;32787;53.316;8.670;2023-09-08T16:07:57;28.10;55.90
46816;DHT22;32787;53.316;8.670;2023-09-08T16:10:43;27.90;56.00
46816;DHT22;32787;53.316;8.670;2023-09-08T16:13:32;28.00;55.50
46816;DHT22;32787;53.316;8.670;2023-09-08T16:16:18;27.90;55.80
46816;DHT22;32787;53.316;8.670;2023-09-08T16:19:04;27.50;57.30
46816;DHT22;32787;53.316;8.670;2023-09-08T16:21:50;27.50;58.20
46816;DHT22;32787;53.316;8.670;2023-09-08T16:24:36;27.30;58.90
46816;DHT22;32787;53.316;8.670;2023-09-08T16:27:22;27.20;59.40
46816;DHT22;32787;53.316;8.670;2023-09-08T16:30:09;27.00;60.30
46816;DHT22;32787;53.316;8.670;2023-09-08T16:32:55;26.90;60.80
46816;DHT22;32787;53.316;8.670;2023-09-08T16:35:41;26.80;61.50
46816;DHT22;32787;53.316;8.670;2023-09-08T16:38:27;26.60;62.60
46816;DHT22;32787;53.316;8.670;2023-09-08T16:41:13;26.50;63.20
46816;DHT22;32787;53.316;8.670;2023-09-08T16:43:59;26.40;63.60
46816;DHT22;32787;53.316;8.670;2023-09-08T16:46:45;26.20;63.80
46816;DHT22;32787;53.316;8.670;2023-09-08T16:49:32;26.20;64.80
46816;DHT22;32787;53.316;8.670;2023-09-08T16:52:18;26.00;65.50
46816;DHT22;32787;53.316;8.670;2023-09-08T16:55:04;25.90;65.70
46816;DHT22;32787;53.316;8.670;2023-09-08T16:57:56;25.80;66.30
46816;DHT22;32787;53.316;8.670;2023-09-08T17:00:42;25.70;66.80
46816;DHT22;32787;53.316;8.670;2023-09-08T17:03:28;25.60;67.10
46816;DHT22;32787;53.316;8.670;2023-09-08T17:06:14;25.40;67.80
46816;DHT22;32787;53.316;8.670;2023-09-08T17:09:00;25.30;68.90
46816;DHT22;32787;53.316;8.670;2023-09-08T17:11:46;25.20;69.70
46816;DHT22;32787;53.316;8.670;2023-09-08T17:14:33;24.90;70.60
46816;DHT22;32787;53.316;8.670;2023-09-08T17:17:19;24.80;70.80
46816;DHT22;32787;53.316;8.670;2023-09-08T17:20:06;24.60;72.30
46816;DHT22;32787;53.316;8.670;2023-09-08T17:22:52;24.50;73.20
46816;DHT22;32787;53.316;8.670;2023-09-08T17:25:38;24.30;74.40
46816;DHT22;32787;53.316;8.670;2023-09-08T17:28:24;24.10;74.90
46816;DHT22;32787;53.316;8.670;2023-09-08T17:31:11;23.90;76.20
46816;DHT22;32787;53.316;8.670;2023-09-08T17:33:57;23.70;76.90
46816;DHT22;32787;53.316;8.670;2023-09-08T17:36:42;23.70;77.10
46816;DHT22;32787;53.316;8.670;2023-09-08T17:39:29;23.50;77.60